createdAt,value
2022-10-26T00:08:10.570Z,35.60
2022-10-26T00:18:37.941Z,30.30
2022-10-26T00:29:05.486Z,31.40
2022-10-26T00:39:32.754Z,35.20
2022-10-26T00:50:05.130Z,35.90
2022-10-26T01:00:32.824Z,31.30
2022-10-26T01:11:01.579Z,29.00
2022-10-26T01:21:42.917Z,37.30
2022-10-26T01:32:15.404Z,31.00
2022-10-26T01:42:49.874Z,29.00
2022-10-26T01:53:20.010Z,31.30
2022-10-26T02:03:56.491Z,33.20
2022-10-26T02:14:32.340Z,33.10
2022-10-26T02:25:03.523Z,31.40
2022-10-26T02:35:35.752Z,31.30
2022-10-26T02:46:08.490Z,32.80
2022-10-26T02:56:42.863Z,35.60
2022-10-26T03:07:10.563Z,31.30
2022-10-26T03:17:37.864Z,39.90
2022-10-26T03:28:07.504Z,33.80
2022-10-26T03:38:34.967Z,33.60
2022-10-26T03:49:02.119Z,27.90
2022-10-26T03:59:29.416Z,29.00
2022-10-26T04:09:56.746Z,24.20
2022-10-26T04:20:24.037Z,23.40
2022-10-26T04:30:51.517Z,35.00
2022-10-26T04:41:18.784Z,24.40
2022-10-26T04:51:46.126Z,34.90
2022-10-26T05:02:13.469Z,73.20
2022-10-26T05:12:40.841Z,47.80
2022-10-26T05:23:11.662Z,40.50
2022-10-26T05:33:38.962Z,27.10
2022-10-26T05:44:06.538Z,34.20
2022-10-26T05:54:33.866Z,32.90
2022-10-26T06:05:06.107Z,40.50
2022-10-26T06:15:39.437Z,32.90
2022-10-26T06:26:18.553Z,27.80
2022-10-26T06:36:48.957Z,23.60
2022-10-26T06:47:23.650Z,27.10
2022-10-26T06:57:52.237Z,24.80
2022-10-26T07:08:19.773Z,24.90
2022-10-26T07:18:47.067Z,38.40
2022-10-26T07:29:16.425Z,26.60
2022-10-26T07:39:43.874Z,30.00
2022-10-26T07:50:12.227Z,24.00
2022-10-26T08:00:39.588Z,16.40
2022-10-26T08:11:07.777Z,12.30
2022-10-26T08:32:08.542Z,15.10
2022-10-26T08:42:41.081Z,10.70
2022-10-26T08:53:16.969Z,8.50
2022-10-26T09:03:44.281Z,9.80
2022-10-26T09:14:19.867Z,7.90
2022-10-26T09:24:54.175Z,8.50
2022-10-26T09:35:24.470Z,7.10
2022-10-26T09:45:54.082Z,6.10
2022-10-26T09:56:21.754Z,5.90
2022-10-26T10:06:50.629Z,8.00
2022-10-26T10:17:23.791Z,9.30
2022-10-26T10:27:55.870Z,9.40
2022-10-26T10:38:23.927Z,5.00
2022-10-26T10:48:55.591Z,5.90
2022-10-26T10:59:38.498Z,7.20
2022-10-26T11:10:08.353Z,23.40
2022-10-26T11:20:40.801Z,6.50
2022-10-26T11:31:12.432Z,2.10
2022-10-26T11:41:48.406Z,2.40
2022-10-26T11:52:20.222Z,2.90
2022-10-26T12:02:51.347Z,4.90
2022-10-26T12:13:27.447Z,3.10
2022-10-26T12:24:00.561Z,2.40
2022-10-26T12:35:01.230Z,5.80
2022-10-26T12:45:28.636Z,4.50
2022-10-26T12:56:07.284Z,3.90
2022-10-26T13:06:53.218Z,5.20
2022-10-26T13:17:28.015Z,3.10
2022-10-26T13:28:05.682Z,6.40
2022-10-26T13:59:47.605Z,8.30
2022-10-26T14:10:29.260Z,5.80
2022-10-26T14:21:01.606Z,6.10
2022-10-26T14:31:31.334Z,5.70
2022-10-26T14:42:01.014Z,5.50
2022-10-26T14:52:31.438Z,6.60
2022-10-26T15:02:59.633Z,5.30
2022-10-26T15:13:32.285Z,5.80
2022-10-26T15:24:00.494Z,7.90
2022-10-26T15:34:27.888Z,5.40
2022-10-26T15:44:56.522Z,5.90
2022-10-26T15:55:23.913Z,4.80
2022-10-26T16:05:55.006Z,6.30
2022-10-26T16:16:23.076Z,7.80
2022-10-26T16:26:50.653Z,4.40
2022-10-26T16:37:17.966Z,5.60
2022-10-26T16:47:45.304Z,4.10
2022-10-26T16:58:12.838Z,5.20
2022-10-26T17:08:40.110Z,6.30
2022-10-26T17:19:07.514Z,8.20
2022-10-26T17:29:34.898Z,8.20
2022-10-26T17:40:02.166Z,8.80
2022-10-26T17:50:29.588Z,5.00
2022-10-26T18:00:57.037Z,12.40
2022-10-26T18:11:27.505Z,18.10
2022-10-26T18:21:54.970Z,12.50
2022-10-26T18:32:22.414Z,13.20
2022-10-26T18:42:49.710Z,11.70
2022-10-26T18:53:16.992Z,19.60
2022-10-26T19:03:45.114Z,18.60
2022-10-26T19:14:13.835Z,13.20
2022-10-26T19:24:45.005Z,19.20
2022-10-26T19:35:12.750Z,15.50
2022-10-26T19:45:40.153Z,9.90
2022-10-26T19:56:11.756Z,13.60
2022-10-26T20:06:39.056Z,16.80
2022-10-26T20:17:06.962Z,41.90
2022-10-26T20:27:34.297Z,31.70
2022-10-26T20:38:02.959Z,28.30
2022-10-26T20:48:31.493Z,22.90
2022-10-26T20:59:01.088Z,28.20
2022-10-26T21:09:29.113Z,23.40
2022-10-26T21:19:58.057Z,29.90
2022-10-26T21:30:25.578Z,31.10
2022-10-26T21:40:53.114Z,46.80
2022-10-26T21:51:22.017Z,37.40
2022-10-26T22:01:49.428Z,29.80
2022-10-26T22:12:16.989Z,36.00
2022-10-26T22:22:44.528Z,36.20
2022-10-26T22:33:11.962Z,31.40
2022-10-26T22:43:39.474Z,27.60
2022-10-26T22:54:07.366Z,44.50
2022-10-26T23:04:34.983Z,39.10
2022-10-26T23:15:02.563Z,30.70
2022-10-26T23:25:30.298Z,33.70
2022-10-26T23:35:57.734Z,38.40
2022-10-26T23:56:57.542Z,53.50
